sensor_id;sensor_type;location;lat;lon;timestamp;P1;P2;P0
73825;PMS5003;64145;55.060;73.168;2023-08-31T00:01:50;3.00;3.00;0.00
73825;PMS5003;64145;55.060;73.168;2023-08-31T00:04:18;3.00;2.00;0.00
73825;PMS5003;64145;55.060;73.168;2023-08-31T00:06:43;5.00;3.00;1.00
73825;PMS5003;64145;55.060;73.168;2023-08-31T00:09:10;1.00;1.00;1.00
73825;PMS5003;64145;55.060;73.168;2023-08-31T00:11:36;1.75;1.00;0.75
73825;PMS5003;64145;55.060;73.168;2023-08-31T00:14:02;4.33;4.33;1.33
73825;PMS5003;64145;55.060;73.168;2023-08-31T00:16:28;3.00;3.00;1.00
73825;PMS5003;64145;55.060;73.168;2023-08-31T00:18:55;1.00;1.00;1.00
73825;PMS5003;64145;55.060;73.168;2023-08-31T00:21:21;3.00;2.00;0.00
73825;PMS5003;64145;55.060;73.168;2023-08-31T00:23:47;1.50;1.50;0.00
73825;PMS5003;64145;55.060;73.168;2023-08-31T00:26:13;1.00;1.00;0.00
73825;PMS5003;64145;55.060;73.168;2023-08-31T00:28:40;4.00;2.00;0.00
73825;PMS5003;64145;55.060;73.168;2023-08-31T00:31:07;3.00;2.00;0.00
73825;PMS5003;64145;55.060;73.168;2023-08-31T00:33:33;1.00;1.00;0.00
73825;PMS5003;64145;55.060;73.168;2023-08-31T00:35:59;1.33;1.00;0.00
73825;PMS5003;64145;55.060;73.168;2023-08-31T00:38:28;2.00;1.75;0.00
73825;PMS5003;64145;55.060;73.168;2023-08-31T00:40:54;3.67;1.00;0.00
73825;PMS5003;64145;55.060;73.168;2023-08-31T00:43:19;3.00;1.00;0.00
73825;PMS5003;64145;55.060;73.168;2023-08-31T00:45:45;5.00;2.33;0.00
73825;PMS5003;64145;55.060;73.168;2023-08-31T00:48:12;4.00;3.00;0.00
73825;PMS5003;64145;55.060;73.168;2023-08-31T00:50:39;2.50;2.50;0.00
73825;PMS5003;64145;55.060;73.168;2023-08-31T01:09:07;2.00;2.00;0.00
73825;PMS5003;64145;55.060;73.168;2023-08-31T01:31:45;2.00;2.00;0.00
73825;PMS5003;64145;55.060;73.168;2023-08-31T01:34:11;1.00;1.00;0.00
73825;PMS5003;64145;55.060;73.168;2023-08-31T02:20:59;2.25;1.00;1.00
73825;PMS5003;64145;55.060;73.168;2023-08-31T02:23:26;3.00;3.00;0.00
73825;PMS5003;64145;55.060;73.168;2023-08-31T05:47:54;0.00;0.00;0.00
73825;PMS5003;64145;55.060;73.168;2023-08-31T05:50:20;0.00;0.00;0.00
73825;PMS5003;64145;55.060;73.168;2023-08-31T05:52:45;0.00;0.00;0.00
73825;PMS5003;64145;55.060;73.168;2023-08-31T05:55:11;0.00;0.00;0.00
73825;PMS5003;64145;55.060;73.168;2023-08-31T05:57:36;0.00;0.00;0.00
73825;PMS5003;64145;55.060;73.168;2023-08-31T06:00:03;0.00;0.00;0.00
73825;PMS5003;64145;55.060;73.168;2023-08-31T06:02:29;0.00;0.00;0.00
73825;PMS5003;64145;55.060;73.168;2023-08-31T06:04:54;0.00;0.00;0.00
73825;PMS5003;64145;55.060;73.168;2023-08-31T06:07:20;0.00;0.00;0.00
73825;PMS5003;64145;55.060;73.168;2023-08-31T06:09:45;0.00;0.00;0.00
73825;PMS5003;64145;55.060;73.168;2023-08-31T06:12:11;0.00;0.00;0.00
73825;PMS5003;64145;55.060;73.168;2023-08-31T06:14:36;0.00;0.00;0.00
73825;PMS5003;64145;55.060;73.168;2023-08-31T06:17:02;0.00;0.00;0.00
73825;PMS5003;64145;55.060;73.168;2023-08-31T06:19:28;0.00;0.00;0.00
73825;PMS5003;64145;55.060;73.168;2023-08-31T06:21:53;0.00;0.00;0.00
73825;PMS5003;64145;55.060;73.168;2023-08-31T06:24:19;1.00;0.00;0.00
73825;PMS5003;64145;55.060;73.168;2023-08-31T06:26:44;1.00;0.00;0.00
73825;PMS5003;64145;55.060;73.168;2023-08-31T06:29:10;0.00;0.00;0.00
73825;PMS5003;64145;55.060;73.168;2023-08-31T06:31:36;0.00;0.00;0.00
73825;PMS5003;64145;55.060;73.168;2023-08-31T06:34:02;0.00;0.00;0.00
73825;PMS5003;64145;55.060;73.168;2023-08-31T06:36:29;0.00;0.00;0.00
73825;PMS5003;64145;55.060;73.168;2023-08-31T06:38:55;0.00;0.00;0.00
73825;PMS5003;64145;55.060;73.168;2023-08-31T06:41:20;0.00;0.00;0.00
73825;PMS5003;64145;55.060;73.168;2023-08-31T06:43:46;0.00;0.00;0.00
73825;PMS5003;64145;55.060;73.168;2023-08-31T06:46:11;0.00;0.00;0.00
73825;PMS5003;64145;55.060;73.168;2023-08-31T06:48:37;0.00;0.00;0.00
73825;PMS5003;64145;55.060;73.168;2023-08-31T06:51:02;0.00;0.00;0.00
73825;PMS5003;64145;55.060;73.168;2023-08-31T06:53:29;0.00;0.00;0.00
73825;PMS5003;64145;55.060;73.168;2023-08-31T06:55:55;0.00;0.00;0.00
73825;PMS5003;64145;55.060;73.168;2023-08-31T06:58:21;0.00;0.00;0.00
73825;PMS5003;64145;55.060;73.168;2023-08-31T07:00:46;0.00;0.00;0.00
73825;PMS5003;64145;55.060;73.168;2023-08-31T07:03:12;0.00;0.00;0.00
73825;PMS5003;64145;55.060;73.168;2023-08-31T07:05:41;0.00;0.00;0.00
73825;PMS5003;64145;55.060;73.168;2023-08-31T07:08:06;0.00;0.00;0.00
73825;PMS5003;64145;55.060;73.168;2023-08-31T07:10:32;0.00;0.00;0.00
73825;PMS5003;64145;55.060;73.168;2023-08-31T07:12:57;0.00;0.00;0.00
73825;PMS5003;64145;55.060;73.168;2023-08-31T07:15:34;0.00;0.00;0.00
73825;PMS5003;64145;55.060;73.168;2023-08-31T07:17:59;0.00;0.00;0.00
73825;PMS5003;64145;55.060;73.168;2023-08-31T07:20:25;0.00;0.00;0.00
73825;PMS5003;64145;55.060;73.168;2023-08-31T07:22:51;1.00;0.00;0.00
73825;PMS5003;64145;55.060;73.168;2023-08-31T07:25:16;1.00;1.00;0.00
73825;PMS5003;64145;55.060;73.168;2023-08-31T07:27:42;0.00;0.00;0.00
73825;PMS5003;64145;55.060;73.168;2023-08-31T07:30:08;0.00;0.00;0.00
73825;PMS5003;64145;55.060;73.168;2023-08-31T07:32:33;0.00;0.00;0.00
73825;PMS5003;64145;55.060;73.168;2023-08-31T07:34:59;2.33;2.33;0.33
73825;PMS5003;64145;55.060;73.168;2023-08-31T07:37:26;0.00;0.00;0.00
73825;PMS5003;64145;55.060;73.168;2023-08-31T07:39:51;0.00;0.00;0.00
73825;PMS5003;64145;55.060;73.168;2023-08-31T07:42:17;0.00;0.00;0.00
73825;PMS5003;64145;55.060;73.168;2023-08-31T07:44:42;0.00;0.00;0.00
73825;PMS5003;64145;55.060;73.168;2023-08-31T07:47:09;0.00;0.00;0.00
73825;PMS5003;64145;55.060;73.168;2023-08-31T07:49:35;0.00;0.00;0.00
73825;PMS5003;64145;55.060;73.168;2023-08-31T07:52:01;0.00;0.00;0.00
73825;PMS5003;64145;55.060;73.168;2023-08-31T07:54:28;0.00;0.00;0.00
73825;PMS5003;64145;55.060;73.168;2023-08-31T07:56:53;0.00;0.00;0.00
73825;PMS5003;64145;55.060;73.168;2023-08-31T07:59:19;0.00;0.00;0.00
73825;PMS5003;64145;55.060;73.168;2023-08-31T08:01:45;0.00;0.00;0.00
73825;PMS5003;64145;55.060;73.168;2023-08-31T08:04:11;3.50;2.50;0.00
73825;PMS5003;64145;55.060;73.168;2023-08-31T08:06:36;4.00;4.00;0.00
73825;PMS5003;64145;55.060;73.168;2023-08-31T08:09:02;4.67;4.67;0.00
73825;PMS5003;64145;55.060;73.168;2023-08-31T08:11:30;1.00;1.00;0.00
73825;PMS5003;64145;55.060;73.168;2023-08-31T08:13:55;1.00;1.00;0.00
73825;PMS5003;64145;55.060;73.168;2023-08-31T08:16:21;5.67;5.67;0.33
73825;PMS5003;64145;55.060;73.168;2023-08-31T08:18:46;5.00;5.00;1.00
73825;PMS5003;64145;55.060;73.168;2023-08-31T08:21:12;3.00;3.00;0.00
73825;PMS5003;64145;55.060;73.168;2023-08-31T08:23:37;4.33;4.33;0.00
73825;PMS5003;64145;55.060;73.168;2023-08-31T08:26:03;5.00;4.00;1.00
73825;PMS5003;64145;55.060;73.168;2023-08-31T08:28:28;6.00;6.00;2.00
73825;PMS5003;64145;55.060;73.168;2023-08-31T08:30:54;0.33;0.33;0.00
73825;PMS5003;64145;55.060;73.168;2023-08-31T08:33:20;1.00;1.00;0.00
73825;PMS5003;64145;55.060;73.168;2023-08-31T08:35:45;2.00;1.67;0.00
73825;PMS5003;64145;55.060;73.168;2023-08-31T08:38:11;1.33;1.00;0.00
73825;PMS5003;64145;55.060;73.168;2023-08-31T08:40:36;0.67;0.67;0.00
73825;PMS5003;64145;55.060;73.168;2023-08-31T08:43:02;0.00;0.00;0.00
73825;PMS5003;64145;55.060;73.168;2023-08-31T08:45:35;2.00;1.00;0.00
73825;PMS5003;64145;55.060;73.168;2023-08-31T08:48:03;2.00;1.00;0.00
73825;PMS5003;64145;55.060;73.168;2023-08-31T08:50:29;2.00;2.00;0.00
73825;PMS5003;64145;55.060;73.168;2023-08-31T08:52:57;3.25;3.25;0.00
73825;PMS5003;64145;55.060;73.168;2023-08-31T08:55:22;4.00;4.00;0.00
73825;PMS5003;64145;55.060;73.168;2023-08-31T08:57:48;5.00;4.00;1.00
73825;PMS5003;64145;55.060;73.168;2023-08-31T09:00:14;6.33;5.33;1.67
73825;PMS5003;64145;55.060;73.168;2023-08-31T09:02:40;4.50;4.50;1.50
73825;PMS5003;64145;55.060;73.168;2023-08-31T09:05:06;3.50;3.50;1.00
73825;PMS5003;64145;55.060;73.168;2023-08-31T09:07:35;2.00;2.00;1.00
73825;PMS5003;64145;55.060;73.168;2023-08-31T09:10:04;3.25;3.00;1.00
73825;PMS5003;64145;55.060;73.168;2023-08-31T09:12:29;2.00;2.00;0.00
73825;PMS5003;64145;55.060;73.168;2023-08-31T09:15:02;1.00;1.00;0.00
73825;PMS5003;64145;55.060;73.168;2023-08-31T09:17:42;2.75;2.75;0.00
73825;PMS5003;64145;55.060;73.168;2023-08-31T09:20:09;1.00;1.00;0.00
73825;PMS5003;64145;55.060;73.168;2023-08-31T09:22:35;1.00;1.00;0.00
73825;PMS5003;64145;55.060;73.168;2023-08-31T09:25:01;2.00;0.00;0.00
73825;PMS5003;64145;55.060;73.168;2023-08-31T09:27:26;3.33;2.33;0.67
73825;PMS5003;64145;55.060;73.168;2023-08-31T09:29:55;1.67;1.00;0.00
73825;PMS5003;64145;55.060;73.168;2023-08-31T09:32:21;1.00;1.00;0.00
73825;PMS5003;64145;55.060;73.168;2023-08-31T09:34:47;1.25;1.25;0.00
73825;PMS5003;64145;55.060;73.168;2023-08-31T09:37:15;0.25;0.00;0.00
73825;PMS5003;64145;55.060;73.168;2023-08-31T09:39:40;0.25;0.00;0.00
73825;PMS5003;64145;55.060;73.168;2023-08-31T09:42:06;2.00;1.00;0.00
73825;PMS5003;64145;55.060;73.168;2023-08-31T09:44:32;2.00;2.00;0.00
73825;PMS5003;64145;55.060;73.168;2023-08-31T09:46:57;0.33;0.33;0.00
73825;PMS5003;64145;55.060;73.168;2023-08-31T09:49:24;2.25;2.25;0.00
73825;PMS5003;64145;55.060;73.168;2023-08-31T09:51:50;2.00;2.00;0.00
73825;PMS5003;64145;55.060;73.168;2023-08-31T09:54:17;2.00;2.00;0.00
73825;PMS5003;64145;55.060;73.168;2023-08-31T09:56:43;2.00;1.00;0.00
73825;PMS5003;64145;55.060;73.168;2023-08-31T09:59:13;2.00;1.00;0.00
73825;PMS5003;64145;55.060;73.168;2023-08-31T10:01:39;1.00;1.00;0.00
73825;PMS5003;64145;55.060;73.168;2023-08-31T10:04:05;2.00;2.00;0.00
73825;PMS5003;64145;55.060;73.168;2023-08-31T10:06:36;2.00;2.00;0.00
73825;PMS5003;64145;55.060;73.168;2023-08-31T10:09:03;2.00;1.00;0.00
73825;PMS5003;64145;55.060;73.168;2023-08-31T10:11:29;2.67;2.00;0.00
73825;PMS5003;64145;55.060;73.168;2023-08-31T10:13:56;3.00;1.00;0.00
73825;PMS5003;64145;55.060;73.168;2023-08-31T10:16:22;2.00;0.00;0.00
73825;PMS5003;64145;55.060;73.168;2023-08-31T10:18:49;2.00;0.00;0.00
73825;PMS5003;64145;55.060;73.168;2023-08-31T10:21:16;3.00;1.00;0.00
73825;PMS5003;64145;55.060;73.168;2023-08-31T10:23:45;2.00;2.00;0.00
73825;PMS5003;64145;55.060;73.168;2023-08-31T10:26:10;3.00;2.00;0.00
73825;PMS5003;64145;55.060;73.168;2023-08-31T10:28:40;3.00;3.00;0.00
73825;PMS5003;64145;55.060;73.168;2023-08-31T10:31:50;2.00;2.00;0.00
73825;PMS5003;64145;55.060;73.168;2023-08-31T10:33:58;3.00;3.00;0.50
73825;PMS5003;64145;55.060;73.168;2023-08-31T10:39:22;4.00;4.00;1.00
73825;PMS5003;64145;55.060;73.168;2023-08-31T10:41:54;3.00;3.00;2.00
73825;PMS5003;64145;55.060;73.168;2023-08-31T10:44:21;4.00;2.00;1.00
73825;PMS5003;64145;55.060;73.168;2023-08-31T10:46:47;10.25;10.25;8.00
73825;PMS5003;64145;55.060;73.168;2023-08-31T10:49:13;6.25;6.00;2.00
73825;PMS5003;64145;55.060;73.168;2023-08-31T10:51:40;3.00;3.00;0.00
73825;PMS5003;64145;55.060;73.168;2023-08-31T10:54:10;3.00;3.00;0.00
73825;PMS5003;64145;55.060;73.168;2023-08-31T10:57:18;2.50;2.50;0.50
73825;PMS5003;64145;55.060;73.168;2023-08-31T11:02:33;2.50;2.50;0.00
73825;PMS5003;64145;55.060;73.168;2023-08-31T11:07:26;2.00;2.00;0.00
73825;PMS5003;64145;55.060;73.168;2023-08-31T11:09:54;2.50;2.00;0.50
73825;PMS5003;64145;55.060;73.168;2023-08-31T11:12:31;2.25;1.00;0.00
73825;PMS5003;64145;55.060;73.168;2023-08-31T11:14:57;1.00;1.00;0.00
73825;PMS5003;64145;55.060;73.168;2023-08-31T11:17:23;3.00;3.00;0.00
73825;PMS5003;64145;55.060;73.168;2023-08-31T11:19:58;3.00;2.25;0.00
73825;PMS5003;64145;55.060;73.168;2023-08-31T11:22:25;2.00;2.00;0.00
73825;PMS5003;64145;55.060;73.168;2023-08-31T11:24:50;2.00;2.00;0.00
73825;PMS5003;64145;55.060;73.168;2023-08-31T11:27:19;5.33;4.33;0.00
73825;PMS5003;64145;55.060;73.168;2023-08-31T11:29:45;3.00;3.00;0.00
73825;PMS5003;64145;55.060;73.168;2023-08-31T11:32:11;4.75;4.75;0.00
73825;PMS5003;64145;55.060;73.168;2023-08-31T11:34:43;6.67;6.00;3.00
73825;PMS5003;64145;55.060;73.168;2023-08-31T11:37:12;3.25;3.25;3.00
73825;PMS5003;64145;55.060;73.168;2023-08-31T11:39:51;8.25;8.00;3.00
73825;PMS5003;64145;55.060;73.168;2023-08-31T11:42:17;5.25;5.00;1.00
73825;PMS5003;64145;55.060;73.168;2023-08-31T11:44:47;2.00;2.00;0.00
73825;PMS5003;64145;55.060;73.168;2023-08-31T11:47:13;6.00;6.00;3.25
73825;PMS5003;64145;55.060;73.168;2023-08-31T11:49:40;4.00;4.00;2.00
73825;PMS5003;64145;55.060;73.168;2023-08-31T11:52:06;7.00;7.00;4.25
73825;PMS5003;64145;55.060;73.168;2023-08-31T11:54:31;7.33;6.00;3.67
73825;PMS5003;64145;55.060;73.168;2023-08-31T11:56:57;4.00;4.00;1.00
73825;PMS5003;64145;55.060;73.168;2023-08-31T11:59:22;6.00;6.00;3.00
73825;PMS5003;64145;55.060;73.168;2023-08-31T12:01:49;3.00;3.00;1.00
73825;PMS5003;64145;55.060;73.168;2023-08-31T12:04:16;2.50;2.50;0.00
73825;PMS5003;64145;55.060;73.168;2023-08-31T12:06:42;1.75;1.75;0.00
73825;PMS5003;64145;55.060;73.168;2023-08-31T12:09:11;2.25;2.00;0.00
73825;PMS5003;64145;55.060;73.168;2023-08-31T12:11:37;2.00;1.00;0.00
73825;PMS5003;64145;55.060;73.168;2023-08-31T12:14:03;4.67;2.00;0.00
73825;PMS5003;64145;55.060;73.168;2023-08-31T12:16:32;7.00;4.75;1.75
73825;PMS5003;64145;55.060;73.168;2023-08-31T12:19:03;6.50;5.50;3.50
73825;PMS5003;64145;55.060;73.168;2023-08-31T12:21:30;7.00;6.50;2.25
73825;PMS5003;64145;55.060;73.168;2023-08-31T12:23:56;5.25;5.25;3.00
73825;PMS5003;64145;55.060;73.168;2023-08-31T12:26:22;4.25;4.25;3.25
73825;PMS5003;64145;55.060;73.168;2023-08-31T12:28:47;5.67;5.67;4.00
73825;PMS5003;64145;55.060;73.168;2023-08-31T12:31:13;7.00;7.00;3.00
73825;PMS5003;64145;55.060;73.168;2023-08-31T12:33:38;5.67;5.67;3.67
73825;PMS5003;64145;55.060;73.168;2023-08-31T12:36:04;8.00;8.00;3.00
73825;PMS5003;64145;55.060;73.168;2023-08-31T12:38:29;6.00;5.00;3.00
73825;PMS5003;64145;55.060;73.168;2023-08-31T12:40:55;7.33;6.33;2.33
73825;PMS5003;64145;55.060;73.168;2023-08-31T12:43:21;19.00;18.50;11.50
73825;PMS5003;64145;55.060;73.168;2023-08-31T12:45:47;18.67;17.33;7.33
73825;PMS5003;64145;55.060;73.168;2023-08-31T12:48:12;8.67;7.67;2.00
73825;PMS5003;64145;55.060;73.168;2023-08-31T12:50:38;17.67;16.00;9.67
73825;PMS5003;64145;55.060;73.168;2023-08-31T12:53:03;20.00;16.00;8.67
73825;PMS5003;64145;55.060;73.168;2023-08-31T12:55:29;15.00;11.00;5.00
73825;PMS5003;64145;55.060;73.168;2023-08-31T12:57:56;19.75;16.25;8.50
73825;PMS5003;64145;55.060;73.168;2023-08-31T13:00:22;23.00;21.00;12.50
73825;PMS5003;64145;55.060;73.168;2023-08-31T13:02:48;20.50;20.25;8.25
73825;PMS5003;64145;55.060;73.168;2023-08-31T13:05:16;11.50;9.50;3.00
73825;PMS5003;64145;55.060;73.168;2023-08-31T13:07:41;7.00;6.00;4.00
73825;PMS5003;64145;55.060;73.168;2023-08-31T13:10:07;3.00;2.33;0.00
73825;PMS5003;64145;55.060;73.168;2023-08-31T13:12:33;10.00;9.00;3.25
73825;PMS5003;64145;55.060;73.168;2023-08-31T13:14:59;6.33;6.33;2.00
73825;PMS5003;64145;55.060;73.168;2023-08-31T13:17:25;2.00;2.00;0.00
73825;PMS5003;64145;55.060;73.168;2023-08-31T13:19:55;7.00;6.75;3.25
73825;PMS5003;64145;55.060;73.168;2023-08-31T13:22:21;23.50;22.50;12.00
73825;PMS5003;64145;55.060;73.168;2023-08-31T13:24:47;17.33;17.33;6.33
73825;PMS5003;64145;55.060;73.168;2023-08-31T13:27:12;6.00;6.00;1.67
73825;PMS5003;64145;55.060;73.168;2023-08-31T13:29:41;1.00;0.00;0.00
73825;PMS5003;64145;55.060;73.168;2023-08-31T13:32:08;0.50;0.50;0.00
73825;PMS5003;64145;55.060;73.168;2023-08-31T13:34:33;0.00;0.00;0.00
73825;PMS5003;64145;55.060;73.168;2023-08-31T13:36:59;0.00;0.00;0.00
73825;PMS5003;64145;55.060;73.168;2023-08-31T13:39:27;0.00;0.00;0.00
73825;PMS5003;64145;55.060;73.168;2023-08-31T13:41:53;0.00;0.00;0.00
73825;PMS5003;64145;55.060;73.168;2023-08-31T13:44:21;0.00;0.00;0.00
73825;PMS5003;64145;55.060;73.168;2023-08-31T13:46:47;0.00;0.00;0.00
73825;PMS5003;64145;55.060;73.168;2023-08-31T13:49:14;0.00;0.00;0.00
73825;PMS5003;64145;55.060;73.168;2023-08-31T13:51:40;0.00;0.00;0.00
73825;PMS5003;64145;55.060;73.168;2023-08-31T13:54:06;0.00;0.00;0.00
73825;PMS5003;64145;55.060;73.168;2023-08-31T13:56:34;0.50;0.50;0.00
73825;PMS5003;64145;55.060;73.168;2023-08-31T13:59:00;13.50;12.50;8.25
73825;PMS5003;64145;55.060;73.168;2023-08-31T14:01:26;17.00;16.00;6.00
73825;PMS5003;64145;55.060;73.168;2023-08-31T14:03:57;9.75;7.50;2.00
73825;PMS5003;64145;55.060;73.168;2023-08-31T14:06:22;4.33;4.00;2.00
73825;PMS5003;64145;55.060;73.168;2023-08-31T14:08:48;5.00;4.00;2.00
73825;PMS5003;64145;55.060;73.168;2023-08-31T14:11:13;0.00;0.00;0.00
73825;PMS5003;64145;55.060;73.168;2023-08-31T14:13:39;1.00;1.00;0.00
73825;PMS5003;64145;55.060;73.168;2023-08-31T14:16:05;1.00;1.00;0.00
73825;PMS5003;64145;55.060;73.168;2023-08-31T14:18:31;7.75;7.50;4.50
73825;PMS5003;64145;55.060;73.168;2023-08-31T14:21:00;4.00;3.00;1.00
73825;PMS5003;64145;55.060;73.168;2023-08-31T14:23:26;2.00;1.00;1.00
73825;PMS5003;64145;55.060;73.168;2023-08-31T14:25:52;1.00;0.00;0.00
73825;PMS5003;64145;55.060;73.168;2023-08-31T14:28:17;0.00;0.00;0.00
73825;PMS5003;64145;55.060;73.168;2023-08-31T14:30:43;0.00;0.00;0.00
73825;PMS5003;64145;55.060;73.168;2023-08-31T14:33:09;0.00;0.00;0.00
73825;PMS5003;64145;55.060;73.168;2023-08-31T14:35:36;0.00;0.00;0.00
73825;PMS5003;64145;55.060;73.168;2023-08-31T14:38:01;0.00;0.00;0.00
73825;PMS5003;64145;55.060;73.168;2023-08-31T14:40:27;0.00;0.00;0.00
73825;PMS5003;64145;55.060;73.168;2023-08-31T14:42:53;0.00;0.00;0.00
73825;PMS5003;64145;55.060;73.168;2023-08-31T14:45:18;0.00;0.00;0.00
73825;PMS5003;64145;55.060;73.168;2023-08-31T14:47:45;2.00;1.00;0.00
73825;PMS5003;64145;55.060;73.168;2023-08-31T14:50:10;3.00;1.00;0.00
73825;PMS5003;64145;55.060;73.168;2023-08-31T14:52:36;3.33;3.33;0.00
73825;PMS5003;64145;55.060;73.168;2023-08-31T14:55:02;8.50;8.00;4.50
73825;PMS5003;64145;55.060;73.168;2023-08-31T14:57:29;5.75;5.75;3.00
73825;PMS5003;64145;55.060;73.168;2023-08-31T14:59:54;3.00;2.00;0.00
73825;PMS5003;64145;55.060;73.168;2023-08-31T15:02:23;1.00;1.00;0.00
73825;PMS5003;64145;55.060;73.168;2023-08-31T15:04:49;1.00;1.00;0.00
73825;PMS5003;64145;55.060;73.168;2023-08-31T15:07:15;2.00;2.00;0.00
73825;PMS5003;64145;55.060;73.168;2023-08-31T15:09:40;4.75;4.75;2.00
73825;PMS5003;64145;55.060;73.168;2023-08-31T15:12:07;3.50;3.00;1.00
73825;PMS5003;64145;55.060;73.168;2023-08-31T15:14:33;4.50;4.50;1.50
73825;PMS5003;64145;55.060;73.168;2023-08-31T15:16:59;6.00;6.00;3.00
73825;PMS5003;64145;55.060;73.168;2023-08-31T15:19:25;4.00;4.00;2.00
73825;PMS5003;64145;55.060;73.168;2023-08-31T15:21:50;2.33;2.33;1.00
73825;PMS5003;64145;55.060;73.168;2023-08-31T15:24:16;5.00;4.00;1.00
73825;PMS5003;64145;55.060;73.168;2023-08-31T15:26:41;5.67;5.67;2.00
73825;PMS5003;64145;55.060;73.168;2023-08-31T15:29:11;7.00;7.00;2.00
73825;PMS5003;64145;55.060;73.168;2023-08-31T15:31:36;7.00;7.00;3.00
73825;PMS5003;64145;55.060;73.168;2023-08-31T15:34:02;11.00;10.00;5.00
73825;PMS5003;64145;55.060;73.168;2023-08-31T15:36:28;17.00;13.00;6.00
73825;PMS5003;64145;55.060;73.168;2023-08-31T15:38:54;12.00;10.00;3.67
73825;PMS5003;64145;55.060;73.168;2023-08-31T15:41:20;11.00;9.00;3.00
73825;PMS5003;64145;55.060;73.168;2023-08-31T15:43:45;9.00;8.00;4.00
73825;PMS5003;64145;55.060;73.168;2023-08-31T15:46:11;7.67;7.00;3.67
73825;PMS5003;64145;55.060;73.168;2023-08-31T15:48:37;6.67;5.67;3.00
73825;PMS5003;64145;55.060;73.168;2023-08-31T15:51:02;5.00;5.00;3.00
73825;PMS5003;64145;55.060;73.168;2023-08-31T15:53:28;4.00;4.00;2.00
73825;PMS5003;64145;55.060;73.168;2023-08-31T15:55:55;4.00;4.00;2.00
73825;PMS5003;64145;55.060;73.168;2023-08-31T15:58:23;4.50;4.50;2.50
73825;PMS5003;64145;55.060;73.168;2023-08-31T16:00:51;2.50;2.50;1.00
73825;PMS5003;64145;55.060;73.168;2023-08-31T16:03:23;2.25;2.25;1.00
73825;PMS5003;64145;55.060;73.168;2023-08-31T16:05:48;5.00;3.00;1.00
73825;PMS5003;64145;55.060;73.168;2023-08-31T16:08:15;2.50;2.50;0.00
73825;PMS5003;64145;55.060;73.168;2023-08-31T16:10:40;4.67;3.67;0.67
73825;PMS5003;64145;55.060;73.168;2023-08-31T16:13:06;2.00;2.00;0.00
73825;PMS5003;64145;55.060;73.168;2023-08-31T16:15:31;2.00;2.00;0.00
73825;PMS5003;64145;55.060;73.168;2023-08-31T16:17:57;4.00;1.67;0.00
73825;PMS5003;64145;55.060;73.168;2023-08-31T16:20:23;2.00;2.00;0.00
73825;PMS5003;64145;55.060;73.168;2023-08-31T16:22:51;1.33;1.33;0.33
73825;PMS5003;64145;55.060;73.168;2023-08-31T16:25:17;0.00;0.00;0.00
73825;PMS5003;64145;55.060;73.168;2023-08-31T16:27:43;2.00;1.00;0.00
73825;PMS5003;64145;55.060;73.168;2023-08-31T16:30:09;1.50;1.50;0.00
73825;PMS5003;64145;55.060;73.168;2023-08-31T16:32:35;2.00;2.00;0.00
73825;PMS5003;64145;55.060;73.168;2023-08-31T16:35:01;1.00;1.00;0.00
73825;PMS5003;64145;55.060;73.168;2023-08-31T16:37:28;0.00;0.00;0.00
73825;PMS5003;64145;55.060;73.168;2023-08-31T16:39:54;0.00;0.00;0.00
73825;PMS5003;64145;55.060;73.168;2023-08-31T16:42:21;0.25;0.25;0.00
73825;PMS5003;64145;55.060;73.168;2023-08-31T16:44:46;1.00;1.00;0.00
73825;PMS5003;64145;55.060;73.168;2023-08-31T16:47:12;2.00;2.00;0.00
73825;PMS5003;64145;55.060;73.168;2023-08-31T16:49:37;2.00;2.00;0.00
73825;PMS5003;64145;55.060;73.168;2023-08-31T16:52:03;3.00;3.00;0.00
73825;PMS5003;64145;55.060;73.168;2023-08-31T16:54:29;3.00;3.00;0.00
73825;PMS5003;64145;55.060;73.168;2023-08-31T16:56:55;1.00;1.00;0.00
73825;PMS5003;64145;55.060;73.168;2023-08-31T16:59:21;1.00;1.00;0.00
73825;PMS5003;64145;55.060;73.168;2023-08-31T17:01:46;1.00;1.00;0.00
73825;PMS5003;64145;55.060;73.168;2023-08-31T17:04:12;1.67;1.00;0.00
73825;PMS5003;64145;55.060;73.168;2023-08-31T17:06:38;2.00;2.00;0.00
73825;PMS5003;64145;55.060;73.168;2023-08-31T17:09:03;4.33;4.00;0.00
73825;PMS5003;64145;55.060;73.168;2023-08-31T17:11:32;6.00;6.00;0.00
73825;PMS5003;64145;55.060;73.168;2023-08-31T17:13:57;2.50;2.00;0.00
73825;PMS5003;64145;55.060;73.168;2023-08-31T17:16:23;3.00;3.00;0.00
73825;PMS5003;64145;55.060;73.168;2023-08-31T17:18:48;5.00;4.67;1.00
73825;PMS5003;64145;55.060;73.168;2023-08-31T17:21:14;4.00;3.33;1.00
73825;PMS5003;64145;55.060;73.168;2023-08-31T17:23:40;5.00;3.00;0.00
73825;PMS5003;64145;55.060;73.168;2023-08-31T17:26:05;6.00;4.00;0.00
73825;PMS5003;64145;55.060;73.168;2023-08-31T17:28:31;3.67;2.67;0.00
73825;PMS5003;64145;55.060;73.168;2023-08-31T17:30:57;4.50;4.00;0.00
73825;PMS5003;64145;55.060;73.168;2023-08-31T17:33:23;3.00;3.00;1.00
73825;PMS5003;64145;55.060;73.168;2023-08-31T17:35:50;2.00;2.00;0.00
73825;PMS5003;64145;55.060;73.168;2023-08-31T17:38:16;1.00;1.00;0.00
73825;PMS5003;64145;55.060;73.168;2023-08-31T17:40:44;0.00;0.00;0.00
73825;PMS5003;64145;55.060;73.168;2023-08-31T17:43:14;0.00;0.00;0.00
73825;PMS5003;64145;55.060;73.168;2023-08-31T17:45:41;0.00;0.00;0.00
73825;PMS5003;64145;55.060;73.168;2023-08-31T17:48:07;0.00;0.00;0.00
73825;PMS5003;64145;55.060;73.168;2023-08-31T17:50:32;0.00;0.00;0.00
73825;PMS5003;64145;55.060;73.168;2023-08-31T17:52:58;0.00;0.00;0.00
73825;PMS5003;64145;55.060;73.168;2023-08-31T17:55:23;0.00;0.00;0.00
73825;PMS5003;64145;55.060;73.168;2023-08-31T17:57:49;0.00;0.00;0.00
73825;PMS5003;64145;55.060;73.168;2023-08-31T18:00:15;1.00;0.00;0.00
73825;PMS5003;64145;55.060;73.168;2023-08-31T18:02:40;2.33;0.00;0.00
73825;PMS5003;64145;55.060;73.168;2023-08-31T18:05:06;4.00;3.00;0.00
73825;PMS5003;64145;55.060;73.168;2023-08-31T18:07:32;2.00;2.00;0.00
73825;PMS5003;64145;55.060;73.168;2023-08-31T18:09:57;4.00;3.67;0.00
73825;PMS5003;64145;55.060;73.168;2023-08-31T18:12:23;3.00;3.00;0.00
73825;PMS5003;64145;55.060;73.168;2023-08-31T18:14:49;3.50;3.50;0.50
73825;PMS5003;64145;55.060;73.168;2023-08-31T18:17:15;1.00;1.00;0.00
73825;PMS5003;64145;55.060;73.168;2023-08-31T18:19:40;2.00;2.00;0.00
73825;PMS5003;64145;55.060;73.168;2023-08-31T18:22:06;3.00;3.00;1.00
73825;PMS5003;64145;55.060;73.168;2023-08-31T18:24:32;2.00;2.00;0.33
73825;PMS5003;64145;55.060;73.168;2023-08-31T18:26:58;2.00;2.00;0.00
73825;PMS5003;64145;55.060;73.168;2023-08-31T18:29:26;4.00;3.00;0.00
73825;PMS5003;64145;55.060;73.168;2023-08-31T18:31:51;4.00;3.00;0.00
73825;PMS5003;64145;55.060;73.168;2023-08-31T18:34:17;6.00;6.00;0.00
73825;PMS5003;64145;55.060;73.168;2023-08-31T18:36:43;5.33;5.00;0.00
73825;PMS5003;64145;55.060;73.168;2023-08-31T18:39:08;7.33;7.33;2.00
73825;PMS5003;64145;55.060;73.168;2023-08-31T18:41:35;6.00;5.00;2.00
73825;PMS5003;64145;55.060;73.168;2023-08-31T18:44:01;8.00;7.50;3.75
73825;PMS5003;64145;55.060;73.168;2023-08-31T18:46:28;8.00;7.00;2.00
73825;PMS5003;64145;55.060;73.168;2023-08-31T18:48:53;7.00;6.00;3.00
73825;PMS5003;64145;55.060;73.168;2023-08-31T18:51:19;6.00;6.00;2.00
73825;PMS5003;64145;55.060;73.168;2023-08-31T18:53:44;5.33;4.67;3.00
73825;PMS5003;64145;55.060;73.168;2023-08-31T18:56:10;7.00;5.00;3.00